Time;durP1;ratioP1;P1;durP2;ratioP2;P2;SDS_P1;SDS_P2;PMS_P1;PMS_P2;Temp;Humidity;BMP_temperature;BMP_pressure;BME280_temperature;BME280_humidity;BME280_pressure;Samples;Min_cycle;Max_cycle;Signal;HPM_P1;HPM_P2
2021/05/08 00:01:37;;;;;;;3.13;2.17;;;;;;;4.26;72.91;100858.78;5042300;28;20284;-69
2021/05/08 00:04:04;;;;;;;2.42;2.10;;;;;;;4.15;74.43;100850.81;5042389;28;20121;-69
2021/05/08 00:06:30;;;;;;;3.63;2.78;;;;;;;3.99;74.28;100853.59;5043904;28;20060;-68
2021/05/08 00:08:55;;;;;;;2.75;2.00;;;;;;;3.99;74.27;100853.59;5032240;28;20041;-69
2021/05/08 00:11:21;;;;;;;2.88;1.90;;;;;;;4.02;74.69;100856.84;5039945;28;20124;-69
2021/05/08 00:13:46;;;;;;;2.55;2.13;;;;;;;4.07;75.95;100859.16;5037271;28;20037;-69
2021/05/08 00:16:11;;;;;;;2.00;1.70;;;;;;;4.11;73.64;100850.19;5041205;28;20040;-69
2021/05/08 00:18:37;;;;;;;3.55;2.28;;;;;;;4.07;73.49;100855.72;5040656;28;20270;-69
2021/05/08 00:21:02;;;;;;;2.80;2.22;;;;;;;3.98;72.97;100857.16;5040450;28;20048;-69
2021/05/08 00:23:28;;;;;;;2.58;2.10;;;;;;;3.92;74.16;100850.56;5043056;28;20537;-69
2021/05/08 00:25:54;;;;;;;2.95;2.13;;;;;;;3.86;73.96;100850.09;5049677;28;20414;-69
2021/05/08 00:28:20;;;;;;;2.90;2.17;;;;;;;3.84;74.27;100852.84;5037791;28;20167;-69
2021/05/08 00:30:45;;;;;;;2.80;2.00;;;;;;;3.86;76.21;100857.97;5043169;28;20104;-69
2021/05/08 00:33:10;;;;;;;2.28;1.80;;;;;;;3.86;75.17;100855.34;5049056;28;20039;-69
2021/05/08 00:35:36;;;;;;;3.03;1.90;;;;;;;3.80;74.44;100854.81;5039564;28;20120;-68
2021/05/08 00:38:01;;;;;;;2.70;2.08;;;;;;;3.75;76.51;100859.50;5040623;28;20513;-69
2021/05/08 00:40:27;;;;;;;2.85;2.03;;;;;;;3.79;77.78;100854.91;5054766;28;20033;-69
2021/05/08 00:42:52;;;;;;;2.38;2.15;;;;;;;3.88;75.88;100854.28;5039749;28;20487;-69
2021/05/08 00:45:17;;;;;;;2.28;1.80;;;;;;;3.91;75.95;100854.13;5033101;28;20038;-69
2021/05/08 00:47:48;;;;;;;2.38;2.00;;;;;;;3.86;74.42;100845.72;5031753;28;20446;-69
2021/05/08 00:50:15;;;;;;;2.83;2.30;;;;;;;3.79;74.84;100852.28;5036654;28;20032;-68
2021/05/08 00:52:41;;;;;;;2.40;2.13;;;;;;;3.80;75.55;100846.13;5036943;28;20084;-68
2021/05/08 00:55:08;;;;;;;2.75;2.20;;;;;;;3.75;75.63;100846.44;5033835;28;20061;-69
2021/05/08 00:57:34;;;;;;;3.50;2.90;;;;;;;3.68;75.88;100850.38;5039771;28;20063;-69
2021/05/08 00:59:59;;;;;;;3.35;2.50;;;;;;;3.61;75.90;100851.72;5038569;28;20064;-69
2021/05/08 01:02:25;;;;;;;3.60;2.55;;;;;;;3.52;75.99;100845.28;5048300;28;20051;-69
2021/05/08 01:04:50;;;;;;;2.88;2.55;;;;;;;3.41;76.46;100845.16;5042542;28;20032;-69
2021/05/08 01:07:16;;;;;;;3.60;2.70;;;;;;;3.31;76.81;100839.69;5037450;28;20080;-68
2021/05/08 01:09:42;;;;;;;2.95;2.40;;;;;;;3.28;76.90;100841.63;5042934;28;20041;-68
2021/05/08 01:12:08;;;;;;;2.80;2.40;;;;;;;3.39;77.87;100840.03;5037648;28;20037;-69
2021/05/08 01:14:34;;;;;;;3.78;2.75;;;;;;;3.46;78.02;100840.47;5041838;28;20029;-68
2021/05/08 01:16:59;;;;;;;3.38;2.70;;;;;;;3.46;77.43;100839.63;5041333;28;20494;-68
2021/05/08 01:19:28;;;;;;;3.22;2.45;;;;;;;3.51;75.13;100841.00;5047515;28;20057;-68
2021/05/08 01:21:54;;;;;;;3.30;2.63;;;;;;;3.43;76.47;100845.03;5040609;28;20053;-68
2021/05/08 01:24:19;;;;;;;3.20;2.90;;;;;;;3.36;76.78;100842.84;5054228;28;21200;-68
2021/05/08 01:26:44;;;;;;;2.97;2.58;;;;;;;3.27;79.43;100840.81;5043411;28;20079;-69
2021/05/08 01:29:10;;;;;;;3.03;2.70;;;;;;;3.25;78.60;100840.06;5037375;28;20041;-68
2021/05/08 01:31:35;;;;;;;3.72;3.15;;;;;;;3.26;77.43;100836.50;5051193;28;20029;-68
2021/05/08 01:34:02;;;;;;;3.60;3.17;;;;;;;3.18;77.87;100833.53;5045796;28;20112;-68
2021/05/08 01:36:28;;;;;;;3.85;3.08;;;;;;;3.21;79.76;100835.13;5051630;28;20417;-68
2021/05/08 01:38:54;;;;;;;3.40;2.90;;;;;;;3.21;78.65;100832.50;5044232;28;20043;-68
2021/05/08 01:41:20;;;;;;;3.35;2.88;;;;;;;3.11;78.11;100832.25;5054368;28;20041;-68
2021/05/08 01:43:45;;;;;;;3.97;2.92;;;;;;;3.09;79.57;100827.09;5047533;28;20219;-68
2021/05/08 01:46:10;;;;;;;3.33;2.72;;;;;;;3.12;78.12;100831.31;5046621;28;20091;-69
2021/05/08 01:48:36;;;;;;;3.45;2.80;;;;;;;2.96;78.24;100829.66;5034996;28;20148;-68
2021/05/08 01:51:01;;;;;;;4.63;3.22;;;;;;;2.87;79.62;100832.84;5044025;28;20461;-68
2021/05/08 01:53:27;;;;;;;3.53;2.85;;;;;;;2.91;79.57;100826.50;5048355;28;20083;-68
2021/05/08 01:55:52;;;;;;;2.65;2.40;;;;;;;3.01;77.31;100824.16;5047698;28;20030;-68
2021/05/08 01:58:18;;;;;;;3.55;2.95;;;;;;;3.03;78.78;100818.81;5045229;28;20037;-68
2021/05/08 02:00:46;;;;;;;3.50;3.10;;;;;;;2.95;79.22;100822.72;5055524;28;20045;-68
2021/05/08 02:03:12;;;;;;;4.35;3.42;;;;;;;2.92;77.56;100812.50;5050808;28;20060;-69
2021/05/08 02:05:39;;;;;;;4.18;3.20;;;;;;;2.83;78.61;100807.84;5054777;28;20052;-68
2021/05/08 02:08:07;;;;;;;3.63;3.20;;;;;;;2.82;79.18;100802.72;5053030;28;20033;-69
2021/05/08 02:10:36;;;;;;;3.92;3.10;;;;;;;2.87;80.01;100805.88;5058284;28;20107;-68
2021/05/08 02:13:06;;;;;;;3.65;3.10;;;;;;;2.94;80.40;100804.56;5046324;28;20092;-68
2021/05/08 02:15:32;;;;;;;3.78;3.25;;;;;;;2.97;78.32;100796.53;5054641;28;20034;-68
2021/05/08 02:17:58;;;;;;;5.15;3.28;;;;;;;2.92;80.03;100785.53;5048992;28;20046;-68
2021/05/08 02:20:28;;;;;;;3.42;3.13;;;;;;;2.95;78.41;100785.34;5055962;28;20037;-68
2021/05/08 02:22:55;;;;;;;5.50;3.28;;;;;;;2.95;79.09;100782.72;5045034;28;20037;-68
2021/05/08 02:25:21;;;;;;;3.72;3.25;;;;;;;2.85;79.08;100790.28;5059573;28;20040;-68
2021/05/08 02:27:46;;;;;;;3.80;3.00;;;;;;;2.87;80.21;100788.44;5050658;28;20402;-68
2021/05/08 02:30:15;;;;;;;4.03;3.38;;;;;;;2.82;79.10;100784.44;5053069;28;20112;-69
2021/05/08 02:32:41;;;;;;;3.88;3.28;;;;;;;2.66;79.84;100785.38;5052513;28;20029;-68
2021/05/08 02:35:08;;;;;;;3.88;2.92;;;;;;;2.70;79.54;100788.66;5048386;28;20087;-68
2021/05/08 02:37:34;;;;;;;9.18;3.90;;;;;;;2.63;79.85;100780.34;5051710;28;20053;-68
2021/05/08 02:39:59;;;;;;;3.80;2.83;;;;;;;2.80;77.91;100781.09;5049360;28;20041;-68
2021/05/08 02:42:25;;;;;;;5.75;3.63;;;;;;;2.70;78.57;100779.03;5056565;28;20029;-68
2021/05/08 02:44:51;;;;;;;3.33;2.90;;;;;;;2.84;77.61;100785.19;5052686;28;20037;-68
2021/05/08 02:47:19;;;;;;;4.18;3.38;;;;;;;2.82;79.97;100787.88;5043341;28;20072;-68
2021/05/08 02:49:50;;;;;;;4.57;3.50;;;;;;;2.73;80.04;100783.22;5054122;28;20034;-68
2021/05/08 02:52:19;;;;;;;4.30;3.27;;;;;;;2.73;79.34;100786.69;5060785;28;20037;-69
2021/05/08 02:54:45;;;;;;;3.25;2.50;;;;;;;2.73;78.44;100791.06;5055872;28;20448;-68
2021/05/08 02:57:10;;;;;;;4.38;3.08;;;;;;;2.73;79.00;100788.47;5060314;28;20033;-68
2021/05/08 02:59:36;;;;;;;4.25;3.10;;;;;;;2.75;78.57;100784.81;5054481;28;20037;-68
2021/05/08 03:02:02;;;;;;;3.90;3.22;;;;;;;2.79;77.68;100793.31;5056892;28;20099;-68
2021/05/08 03:04:28;;;;;;;4.13;3.42;;;;;;;2.74;78.42;100785.75;5056395;28;20036;-68
2021/05/08 03:06:53;;;;;;;3.33;2.72;;;;;;;2.73;79.97;100791.06;5061945;28;20039;-68
2021/05/08 03:09:19;;;;;;;3.75;3.17;;;;;;;2.80;79.30;100786.31;5049005;28;20072;-68
2021/05/08 03:11:44;;;;;;;3.13;2.60;;;;;;;2.79;79.10;100784.63;5059174;28;20529;-68
2021/05/08 03:14:09;;;;;;;3.97;3.10;;;;;;;2.82;79.66;100784.44;5053801;28;20033;-68
2021/05/08 03:16:39;;;;;;;4.35;3.28;;;;;;;2.90;78.16;100784.78;5047749;28;20032;-68
2021/05/08 03:19:04;;;;;;;3.67;2.92;;;;;;;2.88;79.52;100784.03;5045210;28;20037;-68
2021/05/08 03:21:31;;;;;;;4.40;3.20;;;;;;;2.96;78.87;100771.34;5041379;28;20039;-68
2021/05/08 03:23:57;;;;;;;3.30;2.88;;;;;;;2.99;80.14;100776.38;5058047;28;20041;-69
2021/05/08 03:26:22;;;;;;;2.97;2.65;;;;;;;3.00;78.19;100778.03;5057188;28;20039;-69
2021/05/08 03:28:47;;;;;;;4.40;3.10;;;;;;;3.04;79.21;100770.88;5045148;28;20310;-68
2021/05/08 03:31:13;;;;;;;3.28;2.90;;;;;;;3.05;80.69;100772.53;5043827;28;20060;-68
2021/05/08 03:33:38;;;;;;;3.75;2.90;;;;;;;3.09;79.05;100764.41;5050095;28;20036;-68
2021/05/08 03:36:04;;;;;;;3.42;3.03;;;;;;;3.13;79.38;100775.50;5040813;28;20040;-69
2021/05/08 03:38:29;;;;;;;4.10;3.15;;;;;;;2.98;79.94;100769.50;5045534;28;20040;-68
2021/05/08 03:40:54;;;;;;;3.70;3.20;;;;;;;2.85;79.42;100772.03;5049125;28;20021;-69
2021/05/08 03:43:20;;;;;;;4.20;3.30;;;;;;;2.73;79.65;100781.44;5035110;28;20067;-69
2021/05/08 03:45:47;;;;;;;3.70;3.28;;;;;;;2.64;79.90;100778.56;5043302;28;20394;-69
2021/05/08 03:48:13;;;;;;;3.88;2.97;;;;;;;2.48;80.31;100779.53;5042534;28;20060;-69
2021/05/08 03:50:38;;;;;;;3.80;3.22;;;;;;;2.41;80.71;100786.06;5044424;28;20034;-69
2021/05/08 03:53:03;;;;;;;4.20;3.50;;;;;;;2.43;81.04;100788.56;5049523;28;20044;-69
2021/05/08 03:55:28;;;;;;;3.90;3.10;;;;;;;2.41;81.35;100783.44;5036427;28;20049;-69
2021/05/08 03:57:54;;;;;;;4.30;3.78;;;;;;;2.55;82.17;100793.03;5041858;28;20036;-69
2021/05/08 04:00:19;;;;;;;4.32;3.53;;;;;;;2.51;79.99;100781.94;5048239;28;20048;-69
2021/05/08 04:02:45;;;;;;;3.83;3.42;;;;;;;2.54;81.43;100788.75;5046536;28;20111;-69
2021/05/08 04:05:10;;;;;;;4.55;3.50;;;;;;;2.46;80.60;100785.78;5043583;28;20503;-69
2021/05/08 04:07:36;;;;;;;3.95;3.45;;;;;;;2.44;81.62;100792.84;5045805;28;20031;-69
2021/05/08 04:10:02;;;;;;;4.45;3.45;;;;;;;2.37;80.68;100788.94;5048908;28;20094;-69
2021/05/08 04:12:27;;;;;;;4.70;3.20;;;;;;;2.35;81.08;100791.63;5035108;28;20040;-69
2021/05/08 04:14:53;;;;;;;4.63;3.42;;;;;;;2.32;81.09;100787.44;5039868;28;20037;-69
2021/05/08 04:17:18;;;;;;;4.13;3.22;;;;;;;2.36;82.72;100789.84;5040938;28;20371;-69
2021/05/08 04:19:43;;;;;;;4.82;3.60;;;;;;;2.46;81.95;100789.22;5039853;28;20057;-69
2021/05/08 04:22:10;;;;;;;4.50;3.40;;;;;;;2.54;82.10;100788.75;5049065;28;20473;-69
2021/05/08 04:24:35;;;;;;;5.22;3.38;;;;;;;2.67;81.71;100781.84;5046058;28;20031;-69
2021/05/08 04:27:01;;;;;;;4.57;3.58;;;;;;;2.69;81.81;100790.44;5038568;28;20037;-69
2021/05/08 04:29:26;;;;;;;5.55;3.60;;;;;;;2.80;82.02;100784.53;5037270;28;20113;-69
2021/05/08 04:31:51;;;;;;;5.10;3.95;;;;;;;2.83;80.56;100788.72;5044071;28;20036;-69
2021/05/08 04:34:17;;;;;;;4.75;3.70;;;;;;;2.88;81.44;100778.81;5045880;28;20542;-69
2021/05/08 04:36:42;;;;;;;4.28;3.25;;;;;;;2.97;79.48;100781.69;5049632;28;20032;-69
2021/05/08 04:39:07;;;;;;;4.40;3.60;;;;;;;3.11;80.84;100791.28;5034737;28;20080;-69
2021/05/08 04:41:33;;;;;;;3.97;3.17;;;;;;;3.25;78.67;100785.19;5047348;28;20479;-69
2021/05/08 04:43:58;;;;;;;5.28;3.20;;;;;;;3.29;78.48;100781.44;5045268;28;20044;-69
2021/05/08 04:46:24;;;;;;;3.65;2.83;;;;;;;3.33;78.14;100782.06;5048838;28;20053;-69
2021/05/08 04:48:53;;;;;;;4.72;3.70;;;;;;;3.29;80.38;100789.28;5046533;28;20029;-69
2021/05/08 04:51:19;;;;;;;4.22;3.30;;;;;;;3.39;79.82;100784.28;5041388;28;20037;-69
2021/05/08 04:53:45;;;;;;;4.70;3.60;;;;;;;3.43;80.69;100787.53;5039215;28;20055;-69
2021/05/08 04:56:10;;;;;;;3.72;3.35;;;;;;;3.40;80.23;100781.56;5046560;28;20029;-70
2021/05/08 04:58:36;;;;;;;3.70;2.90;;;;;;;3.49;79.59;100782.75;5049484;28;20040;-69
2021/05/08 05:01:01;;;;;;;3.35;2.80;;;;;;;3.59;79.45;100775.97;5046558;28;20030;-69
2021/05/08 05:03:26;;;;;;;2.88;2.58;;;;;;;3.67;78.51;100778.09;5046861;28;20492;-69
2021/05/08 05:05:51;;;;;;;3.65;2.70;;;;;;;3.74;78.77;100783.75;5046153;28;20037;-69
2021/05/08 05:08:20;;;;;;;4.28;3.30;;;;;;;3.77;79.41;100789.63;5037016;28;20045;-69
2021/05/08 05:10:50;;;;;;;4.57;3.38;;;;;;;3.81;78.63;100785.00;5045240;28;20060;-69
2021/05/08 05:13:15;;;;;;;4.00;3.35;;;;;;;3.82;79.15;100781.47;5047385;28;20104;-69
2021/05/08 05:15:41;;;;;;;4.60;3.88;;;;;;;3.79;79.52;100785.13;5044261;28;20021;-69
2021/05/08 05:18:06;;;;;;;4.05;3.10;;;;;;;3.89;79.27;100790.59;5045942;28;20120;-69
2021/05/08 05:20:31;;;;;;;3.30;2.60;;;;;;;4.08;79.06;100789.38;5041579;28;20451;-69
2021/05/08 05:22:57;;;;;;;3.08;2.13;;;;;;;4.39;78.52;100786.31;5042548;28;20033;-69
2021/05/08 05:25:22;;;;;;;3.80;2.90;;;;;;;4.84;77.60;100797.16;5034716;28;20033;-68
2021/05/08 05:27:47;;;;;;;3.30;2.60;;;;;;;5.33;75.76;100787.56;5045924;28;20612;-68
2021/05/08 05:30:13;;;;;;;3.90;2.90;;;;;;;5.75;75.61;100791.44;5047261;28;20040;-68
2021/05/08 05:32:39;;;;;;;2.90;2.20;;;;;;;6.16;72.98;100792.75;5038517;28;20036;-69
2021/05/08 05:35:04;;;;;;;4.50;3.45;;;;;;;6.42;71.41;100789.94;5043826;28;20156;-69
2021/05/08 05:37:30;;;;;;;4.03;2.50;;;;;;;6.65;70.42;100798.69;5044239;28;20063;-67
2021/05/08 05:39:55;;;;;;;2.72;2.17;;;;;;;7.08;73.55;100795.28;5038417;28;20047;-67
2021/05/08 05:42:20;;;;;;;3.22;2.58;;;;;;;7.52;67.22;100793.47;5040126;28;20048;-67
2021/05/08 05:44:46;;;;;;;3.78;2.65;;;;;;;8.03;64.28;100798.03;5046389;28;20032;-67
2021/05/08 05:47:21;;;;;;;3.90;2.70;;;;;;;8.55;67.93;100798.03;5043911;28;20121;-67
2021/05/08 05:49:50;;;;;;;3.58;2.35;;;;;;;9.09;67.19;100801.28;5040413;28;20037;-67
2021/05/08 05:55:37;;;;;;;2.45;1.73;;;;;;;10.34;63.25;100799.59;5032887;28;20075;-67
2021/05/08 05:58:03;;;;;;;2.40;1.50;;;;;;;10.84;62.62;100807.25;5036939;28;20502;-68
2021/05/08 06:00:28;;;;;;;3.30;2.22;;;;;;;11.35;60.10;100806.81;5042354;28;20091;-68
2021/05/08 06:02:54;;;;;;;2.70;1.85;;;;;;;11.82;59.13;100806.56;5048193;28;20021;-67
2021/05/08 06:05:19;;;;;;;2.40;1.80;;;;;;;12.27;60.51;100810.91;5029038;28;20037;-67
2021/05/08 06:07:45;;;;;;;2.70;1.85;;;;;;;12.67;53.54;100801.53;5049709;28;20036;-68
2021/05/08 06:10:12;;;;;;;2.40;1.63;;;;;;;12.92;54.27;100795.34;5040030;28;20493;-68
2021/05/08 06:12:38;;;;;;;2.70;1.48;;;;;;;13.08;53.83;100805.16;5045986;28;20033;-67
2021/05/08 06:15:05;;;;;;;1.67;1.30;;;;;;;13.10;53.86;100799.69;5032409;28;20120;-68
2021/05/08 06:17:30;;;;;;;2.22;1.67;;;;;;;13.22;57.87;100802.88;5049514;28;20390;-67
2021/05/08 06:19:55;;;;;;;1.60;1.40;;;;;;;13.64;50.01;100802.81;5038491;28;20043;-68
2021/05/08 06:22:21;;;;;;;2.70;1.70;;;;;;;14.09;50.68;100803.31;5048275;28;20043;-67
2021/05/08 06:24:46;;;;;;;2.75;2.03;;;;;;;14.53;50.19;100802.91;5041285;28;20112;-68
2021/05/08 06:27:12;;;;;;;2.13;1.50;;;;;;;14.65;48.04;100799.72;5050655;28;20065;-68
2021/05/08 06:29:37;;;;;;;2.13;1.20;;;;;;;14.74;48.33;100802.38;5045970;28;20041;-67
2021/05/08 06:32:04;;;;;;;4.35;1.88;;;;;;;14.90;49.03;100791.66;5038022;28;20036;-68
2021/05/08 06:34:29;;;;;;;2.53;1.90;;;;;;;15.23;46.02;100789.66;5041825;28;20032;-68
2021/05/08 06:36:55;;;;;;;3.63;2.00;;;;;;;15.64;47.91;100792.03;5046835;28;20094;-68
2021/05/08 06:39:22;;;;;;;2.78;1.63;;;;;;;15.98;43.22;100795.28;5043387;28;20075;-68
2021/05/08 06:41:47;;;;;;;2.45;1.80;;;;;;;16.28;44.88;100805.00;5045956;28;20053;-68
2021/05/08 06:44:13;;;;;;;2.80;2.00;;;;;;;15.88;44.09;100793.69;5051471;28;20510;-69
2021/05/08 06:46:39;;;;;;;3.42;2.20;;;;;;;16.39;46.81;100797.53;5052452;28;20048;-67
2021/05/08 06:49:04;;;;;;;3.20;2.00;;;;;;;16.65;43.98;100797.09;5040975;28;20037;-68
2021/05/08 06:51:29;;;;;;;2.10;1.52;;;;;;;16.74;45.80;100799.47;5044478;28;20517;-68
2021/05/08 06:53:55;;;;;;;3.10;1.70;;;;;;;16.74;39.44;100795.97;5039988;28;20098;-68
2021/05/08 06:56:20;;;;;;;3.00;2.15;;;;;;;15.52;41.68;100790.78;5040519;28;20401;-68
2021/05/08 06:58:45;;;;;;;4.72;2.10;;;;;;;15.26;41.42;100777.81;5046464;28;20236;-68
2021/05/08 07:01:10;;;;;;;2.88;1.48;;;;;;;16.04;43.63;100783.88;5052787;28;20041;-68
2021/05/08 07:03:36;;;;;;;2.45;1.60;;;;;;;16.66;41.26;100783.56;5044008;28;20037;-68
2021/05/08 07:06:01;;;;;;;2.97;1.20;;;;;;;16.90;39.86;100784.28;5040793;28;20132;-68
2021/05/08 07:08:27;;;;;;;2.55;1.55;;;;;;;17.19;40.08;100781.56;5047791;28;20135;-68
2021/05/08 07:10:53;;;;;;;2.53;1.27;;;;;;;17.76;39.28;100782.50;5040646;28;20532;-67
2021/05/08 07:13:20;;;;;;;1.95;1.23;;;;;;;18.10;39.00;100796.19;5042459;28;20524;-68
2021/05/08 07:15:46;;;;;;;3.05;1.77;;;;;;;18.55;38.66;100794.00;5045081;28;20515;-68
2021/05/08 07:18:11;;;;;;;1.88;1.20;;;;;;;18.31;35.90;100796.13;5046767;28;20033;-68
2021/05/08 07:20:38;;;;;;;1.70;1.20;;;;;;;18.55;38.80;100796.69;5041213;28;20124;-68
2021/05/08 07:23:06;;;;;;;2.53;1.60;;;;;;;18.29;37.54;100800.03;5040753;28;20037;-68
2021/05/08 07:25:32;;;;;;;3.08;1.60;;;;;;;18.29;36.92;100798.19;5033591;28;20029;-68
2021/05/08 07:28:27;;;;;;;2.58;1.60;;;;;;;18.52;35.84;100791.72;5048609;28;20029;-68
2021/05/08 07:30:54;;;;;;;2.20;1.60;;;;;;;18.00;36.96;100786.66;5026175;28;20110;-68
2021/05/08 07:33:21;;;;;;;3.67;1.52;;;;;;;18.57;38.39;100789.28;5042612;28;20033;-68
2021/05/08 07:35:48;;;;;;;3.72;1.80;;;;;;;18.96;34.40;100790.53;5039600;28;20121;-68
2021/05/08 07:38:14;;;;;;;2.80;1.67;;;;;;;19.20;36.60;100792.66;5036936;28;20057;-69
2021/05/08 07:40:40;;;;;;;3.72;1.38;;;;;;;19.23;35.07;100792.25;5042988;28;20414;-68
2021/05/08 07:43:07;;;;;;;1.95;1.52;;;;;;;18.86;36.69;100788.22;5040529;28;20754;-68
2021/05/08 07:45:32;;;;;;;3.53;1.92;;;;;;;18.95;34.61;100797.75;5033869;28;20379;-68
2021/05/08 07:47:58;;;;;;;2.42;1.60;;;;;;;18.94;35.18;100788.03;5033946;28;20056;-68
2021/05/08 07:50:25;;;;;;;3.00;1.55;;;;;;;19.39;34.55;100787.56;5051090;28;20040;-69
2021/05/08 07:52:50;;;;;;;2.67;1.80;;;;;;;19.99;32.83;100795.66;5048823;28;20564;-68
2021/05/08 07:55:16;;;;;;;2.28;1.48;;;;;;;20.23;33.27;100778.91;5051261;28;20041;-68
2021/05/08 07:57:41;;;;;;;3.10;1.70;;;;;;;20.69;31.91;100779.84;5044298;28;20682;-67
2021/05/08 08:00:09;;;;;;;2.58;1.60;;;;;;;20.76;32.01;100769.91;5042685;28;20029;-69
2021/05/08 08:02:35;;;;;;;2.58;1.58;;;;;;;20.92;31.41;100768.59;5035311;28;20037;-70
2021/05/08 08:05:02;;;;;;;2.47;1.30;;;;;;;21.51;32.27;100772.84;5035940;28;20068;-70
2021/05/08 08:07:28;;;;;;;4.18;1.77;;;;;;;21.54;28.06;100768.88;5036769;28;20044;-69
2021/05/08 08:09:53;;;;;;;3.38;1.60;;;;;;;21.94;27.91;100768.56;5040752;28;20451;-69
2021/05/08 08:12:18;;;;;;;3.45;1.98;;;;;;;21.85;27.11;100768.81;5034046;28;20056;-70
2021/05/08 08:14:44;;;;;;;3.25;1.60;;;;;;;20.78;27.84;100770.50;5039617;28;20124;-69
2021/05/08 08:17:09;;;;;;;3.42;1.67;;;;;;;20.96;29.14;100769.84;5043508;28;20095;-69
2021/05/08 08:19:34;;;;;;;2.60;1.60;;;;;;;20.38;27.57;100762.59;5038020;28;20075;-69
2021/05/08 08:22:00;;;;;;;3.28;1.70;;;;;;;19.54;28.47;100766.72;5035796;28;20111;-70
2021/05/08 08:24:25;;;;;;;2.10;1.35;;;;;;;18.89;30.00;100769.88;5041559;28;20219;-69
2021/05/08 08:26:51;;;;;;;3.00;1.60;;;;;;;18.66;29.44;100766.66;5039314;28;20037;-67
2021/05/08 08:29:16;;;;;;;2.63;1.80;;;;;;;18.25;29.04;100775.50;5039599;28;20045;-69
2021/05/08 08:31:43;;;;;;;2.80;1.50;;;;;;;17.95;30.91;100770.34;5040995;28;20398;-70
2021/05/08 08:34:09;;;;;;;2.85;1.85;;;;;;;17.93;30.95;100771.56;5038086;28;20034;-70
2021/05/08 08:36:34;;;;;;;2.90;1.58;;;;;;;17.28;33.80;100757.38;5038657;28;20525;-70
2021/05/08 08:38:59;;;;;;;2.88;1.67;;;;;;;17.13;34.10;100752.06;5035124;28;20179;-70
2021/05/08 08:41:25;;;;;;;3.38;1.73;;;;;;;17.12;32.98;100755.78;5030265;28;20040;-69
2021/05/08 08:43:51;;;;;;;3.88;1.70;;;;;;;16.64;33.18;100755.41;5033563;28;20065;-69
2021/05/08 08:46:17;;;;;;;3.33;1.42;;;;;;;16.49;34.19;100744.72;5047493;28;20037;-69
2021/05/08 08:48:43;;;;;;;2.55;1.60;;;;;;;16.35;34.12;100739.22;5043538;28;20494;-67
2021/05/08 08:51:08;;;;;;;3.58;1.75;;;;;;;16.09;34.76;100749.50;5040751;28;20051;-69
2021/05/08 08:53:35;;;;;;;2.70;1.48;;;;;;;16.20;35.49;100740.22;5045966;28;20046;-70
2021/05/08 08:56:02;;;;;;;2.80;1.60;;;;;;;16.31;35.05;100732.56;5043054;28;20123;-70
2021/05/08 08:58:31;;;;;;;3.20;1.58;;;;;;;16.16;35.52;100733.56;5042320;28;20102;-70
2021/05/08 09:00:58;;;;;;;3.45;1.50;;;;;;;16.06;35.26;100732.00;5043432;28;20037;-69
2021/05/08 09:03:23;;;;;;;2.42;1.60;;;;;;;16.13;35.08;100732.09;5039746;28;20036;-69
2021/05/08 09:05:49;;;;;;;3.17;1.75;;;;;;;16.01;35.89;100733.56;5043766;28;20037;-70
2021/05/08 09:08:14;;;;;;;3.15;1.50;;;;;;;16.06;35.88;100731.16;5038994;28;20476;-70
2021/05/08 09:10:40;;;;;;;4.75;1.65;;;;;;;15.88;36.41;100729.69;5039717;28;20121;-70
2021/05/08 09:13:13;;;;;;;3.85;2.10;;;;;;;16.12;35.68;100717.13;5039579;28;20047;-69
2021/05/08 09:15:40;;;;;;;3.38;1.73;;;;;;;16.10;36.04;100727.13;5042161;28;20128;-69
2021/05/08 09:18:07;;;;;;;4.05;1.70;;;;;;;15.92;37.10;100724.81;5041891;28;20434;-70
2021/05/08 09:20:50;;;;;;;3.00;1.67;;;;;;;16.13;36.65;100716.09;5044560;28;20284;-70
2021/05/08 09:23:23;;;;;;;2.60;1.60;;;;;;;16.28;35.99;100716.94;5046301;28;20041;-69
2021/05/08 09:26:15;;;;;;;3.13;1.60;;;;;;;16.10;36.45;100719.97;5033578;28;20048;-70
2021/05/08 09:28:50;;;;;;;;;;;;;;;15.95;39.11;100713.78;5030083;28;20033;-69
2021/05/08 09:31:15;;;;;;;4.22;1.70;;;;;;;16.13;36.17;100716.09;5048120;28;20025;-70
2021/05/08 09:33:50;;;;;;;3.60;1.60;;;;;;;16.00;35.75;100719.41;5041634;28;20033;-69
2021/05/08 09:36:15;;;;;;;2.40;1.60;;;;;;;15.97;36.07;100706.44;5046569;28;20021;-70
2021/05/08 09:38:43;;;;;;;2.88;1.60;;;;;;;16.14;35.31;100701.75;5045283;28;20116;-69
2021/05/08 09:41:10;;;;;;;4.07;1.80;;;;;;;16.18;37.00;100705.69;5040418;28;20431;-70
2021/05/08 09:43:37;;;;;;;2.50;1.40;;;;;;;16.48;36.21;100703.03;5031269;28;20041;-70
2021/05/08 09:46:03;;;;;;;4.82;1.80;;;;;;;16.54;35.35;100696.91;5040135;28;20124;-69
2021/05/08 09:48:33;;;;;;;4.55;1.50;;;;;;;16.49;34.24;100686.84;5041530;28;20043;-69
2021/05/08 09:51:26;;;;;;;4.55;1.30;;;;;;;16.61;32.81;100681.81;5047392;28;20060;-67
2021/05/08 09:54:10;;;;;;;2.75;1.27;;;;;;;16.27;34.85;100685.91;5027267;28;20108;-69
2021/05/08 09:56:40;;;;;;;2.45;1.58;;;;;;;16.54;37.12;100680.91;5046796;28;20474;-70
2021/05/08 09:59:31;;;;;;;2.42;1.30;;;;;;;16.92;33.59;100676.25;5039960;28;20044;-71
2021/05/08 10:02:05;;;;;;;2.88;1.30;;;;;;;17.27;34.88;100672.88;5040249;28;20593;-70
2021/05/08 10:04:33;;;;;;;3.50;1.30;;;;;;;17.47;34.73;100673.03;5032873;28;20512;-71
2021/05/08 10:07:09;;;;;;;4.43;1.75;;;;;;;18.03;33.96;100679.22;5042773;28;20124;-69
2021/05/08 10:09:36;;;;;;;3.60;1.70;;;;;;;18.12;31.91;100673.72;5030433;28;20025;-70
2021/05/08 10:12:06;;;;;;;3.03;1.30;;;;;;;17.69;32.51;100669.31;5040138;28;20029;-70
2021/05/08 10:14:37;;;;;;;2.22;1.20;;;;;;;17.80;32.20;100665.25;5034413;28;20033;-70
2021/05/08 10:17:02;;;;;;;2.95;1.20;;;;;;;18.10;29.70;100663.22;5032774;28;20052;-70
2021/05/08 10:19:30;;;;;;;2.97;1.10;;;;;;;17.89;29.56;100656.09;5046773;28;20120;-70
2021/05/08 10:21:58;;;;;;;2.25;1.10;;;;;;;17.91;29.98;100656.72;5049806;28;20036;-67
2021/05/08 10:24:25;;;;;;;3.22;1.13;;;;;;;17.81;30.14;100661.59;5044901;28;20537;-69
2021/05/08 10:26:57;;;;;;;2.40;1.30;;;;;;;17.36;30.45;100651.16;5044859;28;20288;-67
2021/05/08 10:29:23;;;;;;;3.30;1.35;;;;;;;17.33;30.71;100648.06;5040596;28;20115;-68
2021/05/08 10:31:48;;;;;;;2.10;1.17;;;;;;;17.19;31.04;100631.91;5036424;28;20033;-68
2021/05/08 10:34:13;;;;;;;2.22;0.93;;;;;;;17.08;32.05;100627.06;5036743;28;20037;-69
2021/05/08 10:36:46;;;;;;;3.80;1.40;;;;;;;17.22;32.25;100629.88;5037449;28;20026;-69
2021/05/08 10:39:12;;;;;;;1.92;1.20;;;;;;;17.34;30.87;100626.47;5044684;28;20493;-69
2021/05/08 10:41:53;;;;;;;2.45;1.00;;;;;;;17.47;33.02;100614.22;5038736;28;20090;-69
2021/05/08 10:44:43;;;;;;;1.60;0.93;;;;;;;17.74;30.04;100623.25;5045302;28;20045;-69
2021/05/08 10:47:09;;;;;;;2.63;1.13;;;;;;;17.81;30.24;100618.81;5035200;28;20069;-69
2021/05/08 10:49:34;;;;;;;2.13;1.10;;;;;;;17.81;28.93;100618.81;5052429;28;20033;-70
2021/05/08 10:52:02;;;;;;;1.73;1.08;;;;;;;18.00;28.27;100615.41;5046178;28;20292;-70
2021/05/08 10:54:43;;;;;;;3.15;1.23;;;;;;;17.93;29.38;100613.72;5051395;28;20061;-70
2021/05/08 10:57:24;;;;;;;1.75;0.75;;;;;;;17.95;27.84;100620.53;5049661;28;20041;-69
2021/05/08 11:00:01;;;;;;;1.35;0.80;;;;;;;17.77;28.67;100612.97;5036784;28;20398;-71
2021/05/08 11:02:45;;;;;;;1.70;1.00;;;;;;;17.90;28.44;100616.78;5028292;28;20029;-69
2021/05/08 11:05:39;;;;;;;2.63;1.20;;;;;;;17.89;28.98;100612.47;5045871;28;20436;-70
2021/05/08 11:08:27;;;;;;;2.92;1.20;;;;;;;17.87;29.48;100614.50;5020932;28;20128;-70
2021/05/08 11:10:53;;;;;;;1.77;1.10;;;;;;;17.89;29.13;100609.78;5033184;28;20044;-68
2021/05/08 11:13:21;;;;;;;2.25;1.10;;;;;;;17.94;28.86;100602.00;5038704;28;20060;-68
2021/05/08 11:16:12;;;;;;;1.55;0.90;;;;;;;18.02;29.43;100607.19;5048491;28;20024;-68
2021/05/08 11:18:40;;;;;;;;;;;;;;;17.92;29.00;100598.69;5047370;28;20060;-69
2021/05/08 11:21:08;;;;;;;2.45;1.20;;;;;;;17.89;29.86;100597.22;5036739;28;19917;-69
2021/05/08 11:24:04;;;;;;;1.73;1.10;;;;;;;18.22;29.62;100592.03;5045504;28;20127;-69
2021/05/08 11:26:29;;;;;;;2.13;1.33;;;;;;;18.20;30.38;100593.25;5035461;28;20041;-69
2021/05/08 11:29:03;;;;;;;2.53;1.10;;;;;;;18.25;29.31;100588.94;5051200;28;20240;-71
2021/05/08 11:31:30;;;;;;;2.33;1.10;;;;;;;18.41;30.63;100577.06;5044874;28;20316;-70
2021/05/08 11:34:32;;;;;;;2.63;1.30;;;;;;;18.66;29.52;100569.28;5046220;28;20037;-69